sensor_id;sensor_type;location;lat;lon;timestamp;P1;durP1;ratioP1;P2;durP2;ratioP2
38248;SDS011;24045;51.138;17.126;2023-05-21T00:04:19;23.50;;;20.70;;
38248;SDS011;24045;51.138;17.126;2023-05-21T00:19:22;23.60;;;19.40;;
38248;SDS011;24045;51.138;17.126;2023-05-21T00:34:25;24.30;;;18.20;;
38248;SDS011;24045;51.138;17.126;2023-05-21T00:49:28;21.90;;;18.50;;
38248;SDS011;24045;51.138;17.126;2023-05-21T01:04:32;18.90;;;16.80;;
38248;SDS011;24045;51.138;17.126;2023-05-21T01:19:34;17.90;;;16.00;;
38248;SDS011;24045;51.138;17.126;2023-05-21T01:34:44;20.00;;;17.80;;
38248;SDS011;24045;51.138;17.126;2023-05-21T01:49:55;21.60;;;16.10;;
38248;SDS011;24045;51.138;17.126;2023-05-21T02:04:59;22.00;;;18.40;;
38248;SDS011;24045;51.138;17.126;2023-05-21T02:20:01;19.60;;;16.20;;
38248;SDS011;24045;51.138;17.126;2023-05-21T02:35:14;20.00;;;16.90;;
38248;SDS011;24045;51.138;17.126;2023-05-21T02:50:17;19.20;;;15.30;;
38248;SDS011;24045;51.138;17.126;2023-05-21T03:05:20;22.10;;;17.70;;
38248;SDS011;24045;51.138;17.126;2023-05-21T03:20:23;16.70;;;14.10;;
38248;SDS011;24045;51.138;17.126;2023-05-21T03:50:29;17.70;;;14.00;;
38248;SDS011;24045;51.138;17.126;2023-05-21T04:05:32;16.90;;;14.50;;
38248;SDS011;24045;51.138;17.126;2023-05-21T04:20:35;16.20;;;13.40;;
38248;SDS011;24045;51.138;17.126;2023-05-21T04:35:38;16.30;;;13.70;;
38248;SDS011;24045;51.138;17.126;2023-05-21T04:50:45;15.20;;;12.70;;
38248;SDS011;24045;51.138;17.126;2023-05-21T05:05:48;14.00;;;11.70;;
38248;SDS011;24045;51.138;17.126;2023-05-21T05:20:51;14.10;;;11.50;;
38248;SDS011;24045;51.138;17.126;2023-05-21T05:35:54;13.60;;;10.90;;
38248;SDS011;24045;51.138;17.126;2023-05-21T05:50:58;13.10;;;10.00;;
38248;SDS011;24045;51.138;17.126;2023-05-21T06:06:00;23.40;;;16.20;;
38248;SDS011;24045;51.138;17.126;2023-05-21T06:21:03;19.00;;;13.50;;
38248;SDS011;24045;51.138;17.126;2023-05-21T06:36:06;16.00;;;11.00;;
38248;SDS011;24045;51.138;17.126;2023-05-21T06:51:09;14.70;;;8.20;;
38248;SDS011;24045;51.138;17.126;2023-05-21T07:06:12;10.50;;;7.40;;
38248;SDS011;24045;51.138;17.126;2023-05-21T07:21:15;10.40;;;7.40;;
38248;SDS011;24045;51.138;17.126;2023-05-21T07:36:18;11.60;;;7.40;;
38248;SDS011;24045;51.138;17.126;2023-05-21T07:51:20;13.30;;;6.90;;
38248;SDS011;24045;51.138;17.126;2023-05-21T08:06:23;11.10;;;7.20;;
38248;SDS011;24045;51.138;17.126;2023-05-21T08:21:26;12.20;;;6.70;;
38248;SDS011;24045;51.138;17.126;2023-05-21T08:36:29;9.50;;;6.60;;
38248;SDS011;24045;51.138;17.126;2023-05-21T08:51:33;9.60;;;6.00;;
38248;SDS011;24045;51.138;17.126;2023-05-21T09:06:35;11.90;;;6.10;;
38248;SDS011;24045;51.138;17.126;2023-05-21T09:21:39;8.50;;;5.50;;
38248;SDS011;24045;51.138;17.126;2023-05-21T09:36:41;8.50;;;5.10;;
38248;SDS011;24045;51.138;17.126;2023-05-21T09:51:45;9.50;;;5.40;;
38248;SDS011;24045;51.138;17.126;2023-05-21T10:06:48;8.90;;;4.50;;
38248;SDS011;24045;51.138;17.126;2023-05-21T10:21:52;10.20;;;4.30;;
38248;SDS011;24045;51.138;17.126;2023-05-21T10:36:55;8.80;;;4.00;;
38248;SDS011;24045;51.138;17.126;2023-05-21T11:07:49;6.90;;;3.40;;
38248;SDS011;24045;51.138;17.126;2023-05-21T11:22:58;8.20;;;3.80;;
38248;SDS011;24045;51.138;17.126;2023-05-21T11:38:01;9.10;;;4.20;;
38248;SDS011;24045;51.138;17.126;2023-05-21T11:53:04;10.30;;;4.20;;
38248;SDS011;24045;51.138;17.126;2023-05-21T12:08:06;6.50;;;3.50;;
38248;SDS011;24045;51.138;17.126;2023-05-21T12:23:31;8.80;;;4.10;;
38248;SDS011;24045;51.138;17.126;2023-05-21T12:38:33;7.50;;;4.30;;
38248;SDS011;24045;51.138;17.126;2023-05-21T12:53:36;7.10;;;4.00;;
38248;SDS011;24045;51.138;17.126;2023-05-21T13:08:40;7.90;;;4.20;;
38248;SDS011;24045;51.138;17.126;2023-05-21T13:23:42;10.40;;;3.80;;
38248;SDS011;24045;51.138;17.126;2023-05-21T13:38:45;7.70;;;4.20;;
38248;SDS011;24045;51.138;17.126;2023-05-21T13:53:48;8.30;;;3.60;;
38248;SDS011;24045;51.138;17.126;2023-05-21T14:08:51;9.30;;;4.30;;
38248;SDS011;24045;51.138;17.126;2023-05-21T14:23:54;8.00;;;4.20;;
38248;SDS011;24045;51.138;17.126;2023-05-21T14:38:56;12.70;;;7.80;;
38248;SDS011;24045;51.138;17.126;2023-05-21T14:53:59;7.70;;;3.80;;
38248;SDS011;24045;51.138;17.126;2023-05-21T15:09:02;9.00;;;4.20;;
38248;SDS011;24045;51.138;17.126;2023-05-21T15:24:05;8.60;;;4.20;;
38248;SDS011;24045;51.138;17.126;2023-05-21T15:39:08;8.20;;;4.00;;
38248;SDS011;24045;51.138;17.126;2023-05-21T15:54:11;6.60;;;3.60;;
38248;SDS011;24045;51.138;17.126;2023-05-21T16:09:14;9.10;;;4.90;;
38248;SDS011;24045;51.138;17.126;2023-05-21T16:24:18;8.30;;;3.80;;
38248;SDS011;24045;51.138;17.126;2023-05-21T16:39:20;11.40;;;3.70;;
38248;SDS011;24045;51.138;17.126;2023-05-21T16:54:24;8.80;;;3.90;;
38248;SDS011;24045;51.138;17.126;2023-05-21T17:09:31;9.30;;;3.60;;
38248;SDS011;24045;51.138;17.126;2023-05-21T17:24:34;10.40;;;3.50;;
38248;SDS011;24045;51.138;17.126;2023-05-21T17:39:37;7.50;;;3.90;;
38248;SDS011;24045;51.138;17.126;2023-05-21T17:54:40;7.40;;;3.60;;
38248;SDS011;24045;51.138;17.126;2023-05-21T18:09:42;8.30;;;4.40;;
38248;SDS011;24045;51.138;17.126;2023-05-21T18:24:45;7.50;;;4.10;;
38248;SDS011;24045;51.138;17.126;2023-05-21T18:39:48;7.80;;;3.90;;
38248;SDS011;24045;51.138;17.126;2023-05-21T18:54:51;7.70;;;4.20;;
38248;SDS011;24045;51.138;17.126;2023-05-21T19:09:54;7.60;;;3.80;;
38248;SDS011;24045;51.138;17.126;2023-05-21T19:24:57;7.50;;;4.60;;
38248;SDS011;24045;51.138;17.126;2023-05-21T19:40:00;6.70;;;4.00;;
38248;SDS011;24045;51.138;17.126;2023-05-21T19:55:03;8.90;;;4.60;;
38248;SDS011;24045;51.138;17.126;2023-05-21T20:10:07;10.50;;;4.80;;
38248;SDS011;24045;51.138;17.126;2023-05-21T20:25:10;8.90;;;5.10;;
38248;SDS011;24045;51.138;17.126;2023-05-21T20:40:13;8.60;;;5.60;;
38248;SDS011;24045;51.138;17.126;2023-05-21T20:55:16;11.00;;;6.00;;
38248;SDS011;24045;51.138;17.126;2023-05-21T21:10:19;9.90;;;6.00;;
38248;SDS011;24045;51.138;17.126;2023-05-21T21:25:22;13.10;;;6.40;;
38248;SDS011;24045;51.138;17.126;2023-05-21T21:40:25;10.50;;;5.50;;
38248;SDS011;24045;51.138;17.126;2023-05-21T21:55:29;13.40;;;5.90;;
38248;SDS011;24045;51.138;17.126;2023-05-21T22:10:32;8.60;;;5.90;;
38248;SDS011;24045;51.138;17.126;2023-05-21T22:25:40;9.60;;;5.60;;
38248;SDS011;24045;51.138;17.126;2023-05-21T22:40:42;10.00;;;5.50;;
38248;SDS011;24045;51.138;17.126;2023-05-21T22:55:45;10.30;;;5.90;;
38248;SDS011;24045;51.138;17.126;2023-05-21T23:10:48;12.20;;;6.10;;
38248;SDS011;24045;51.138;17.126;2023-05-21T23:25:51;9.70;;;5.60;;
38248;SDS011;24045;51.138;17.126;2023-05-21T23:40:54;11.60;;;5.90;;
38248;SDS011;24045;51.138;17.126;2023-05-21T23:55:57;8.70;;;5.70;;
